sensor_id;sensor_type;location;lat;lon;timestamp;P1;durP1;ratioP1;P2;durP2;ratioP2
75696;SDS011;64312;44.738;20.612;2022-11-15T00:01:23;51.20;;;26.55;;
75696;SDS011;64312;44.738;20.612;2022-11-15T00:04:07;51.10;;;25.63;;
75696;SDS011;64312;44.738;20.612;2022-11-15T00:06:51;48.03;;;24.02;;
75696;SDS011;64312;44.738;20.612;2022-11-15T00:09:36;43.42;;;21.58;;
75696;SDS011;64312;44.738;20.612;2022-11-15T00:12:20;42.08;;;20.48;;
75696;SDS011;64312;44.738;20.612;2022-11-15T00:15:04;42.30;;;21.98;;
75696;SDS011;64312;44.738;20.612;2022-11-15T00:17:50;41.90;;;19.75;;
75696;SDS011;64312;44.738;20.612;2022-11-15T00:20:34;36.15;;;18.63;;
75696;SDS011;64312;44.738;20.612;2022-11-15T00:23:18;33.63;;;16.50;;
75696;SDS011;64312;44.738;20.612;2022-11-15T00:26:03;35.47;;;16.92;;
75696;SDS011;64312;44.738;20.612;2022-11-15T00:28:47;41.78;;;21.70;;
75696;SDS011;64312;44.738;20.612;2022-11-15T00:31:31;40.47;;;20.52;;
75696;SDS011;64312;44.738;20.612;2022-11-15T00:34:16;50.42;;;24.08;;
75696;SDS011;64312;44.738;20.612;2022-11-15T00:36:59;45.30;;;24.35;;
75696;SDS011;64312;44.738;20.612;2022-11-15T00:39:44;43.22;;;21.05;;
75696;SDS011;64312;44.738;20.612;2022-11-15T00:42:28;47.78;;;22.80;;
75696;SDS011;64312;44.738;20.612;2022-11-15T00:45:13;45.33;;;22.60;;
75696;SDS011;64312;44.738;20.612;2022-11-15T00:47:57;46.03;;;24.13;;
75696;SDS011;64312;44.738;20.612;2022-11-15T00:50:41;42.83;;;20.13;;
75696;SDS011;64312;44.738;20.612;2022-11-15T00:53:26;41.95;;;21.92;;
75696;SDS011;64312;44.738;20.612;2022-11-15T00:56:10;36.75;;;19.48;;
75696;SDS011;64312;44.738;20.612;2022-11-15T00:58:54;41.90;;;20.55;;
75696;SDS011;64312;44.738;20.612;2022-11-15T01:01:39;38.53;;;20.33;;
75696;SDS011;64312;44.738;20.612;2022-11-15T01:04:23;39.47;;;19.85;;
75696;SDS011;64312;44.738;20.612;2022-11-15T01:07:08;41.97;;;19.27;;
75696;SDS011;64312;44.738;20.612;2022-11-15T01:09:52;37.38;;;17.38;;
75696;SDS011;64312;44.738;20.612;2022-11-15T01:12:37;39.22;;;18.45;;
75696;SDS011;64312;44.738;20.612;2022-11-15T01:15:21;33.15;;;17.17;;
75696;SDS011;64312;44.738;20.612;2022-11-15T01:18:06;35.83;;;17.52;;
75696;SDS011;64312;44.738;20.612;2022-11-15T01:20:51;36.60;;;19.65;;
75696;SDS011;64312;44.738;20.612;2022-11-15T01:23:36;37.08;;;18.52;;
75696;SDS011;64312;44.738;20.612;2022-11-15T01:26:21;35.00;;;17.55;;
75696;SDS011;64312;44.738;20.612;2022-11-15T01:29:06;35.85;;;17.60;;
75696;SDS011;64312;44.738;20.612;2022-11-15T01:31:52;30.55;;;16.65;;
75696;SDS011;64312;44.738;20.612;2022-11-15T01:34:38;38.22;;;18.48;;
75696;SDS011;64312;44.738;20.612;2022-11-15T01:37:22;30.75;;;13.98;;
75696;SDS011;64312;44.738;20.612;2022-11-15T01:40:07;18.70;;;11.25;;
75696;SDS011;64312;44.738;20.612;2022-11-15T01:42:51;25.60;;;11.68;;
75696;SDS011;64312;44.738;20.612;2022-11-15T01:45:36;27.83;;;13.82;;
75696;SDS011;64312;44.738;20.612;2022-11-15T01:48:20;32.42;;;15.93;;
75696;SDS011;64312;44.738;20.612;2022-11-15T01:51:06;30.63;;;14.98;;
75696;SDS011;64312;44.738;20.612;2022-11-15T01:53:55;26.10;;;14.43;;
75696;SDS011;64312;44.738;20.612;2022-11-15T01:56:49;32.08;;;15.30;;
75696;SDS011;64312;44.738;20.612;2022-11-15T01:59:37;30.33;;;15.30;;
75696;SDS011;64312;44.738;20.612;2022-11-15T02:02:23;25.35;;;12.77;;
75696;SDS011;64312;44.738;20.612;2022-11-15T02:05:08;24.38;;;14.55;;
75696;SDS011;64312;44.738;20.612;2022-11-15T02:07:52;28.30;;;13.32;;
75696;SDS011;64312;44.738;20.612;2022-11-15T02:10:38;28.55;;;14.65;;
75696;SDS011;64312;44.738;20.612;2022-11-15T02:13:22;29.40;;;13.30;;
75696;SDS011;64312;44.738;20.612;2022-11-15T02:31:29;26.77;;;12.60;;
75696;SDS011;64312;44.738;20.612;2022-11-15T02:34:20;21.83;;;11.65;;
75696;SDS011;64312;44.738;20.612;2022-11-15T02:40:59;18.80;;;10.25;;
75696;SDS011;64312;44.738;20.612;2022-11-15T02:46:44;20.55;;;11.07;;
75696;SDS011;64312;44.738;20.612;2022-11-15T02:49:56;25.75;;;13.00;;
75696;SDS011;64312;44.738;20.612;2022-11-15T02:52:45;23.67;;;11.95;;
75696;SDS011;64312;44.738;20.612;2022-11-15T02:55:36;27.00;;;14.00;;
75696;SDS011;64312;44.738;20.612;2022-11-15T03:01:38;32.75;;;13.43;;
75696;SDS011;64312;44.738;20.612;2022-11-15T03:05:04;25.25;;;12.77;;
75696;SDS011;64312;44.738;20.612;2022-11-15T03:07:55;21.15;;;11.80;;
75696;SDS011;64312;44.738;20.612;2022-11-15T03:17:07;23.65;;;12.13;;
75696;SDS011;64312;44.738;20.612;2022-11-15T03:20:10;20.25;;;11.43;;
75696;SDS011;64312;44.738;20.612;2022-11-15T03:23:00;20.42;;;10.95;;
75696;SDS011;64312;44.738;20.612;2022-11-15T03:25:50;22.52;;;12.32;;
75696;SDS011;64312;44.738;20.612;2022-11-15T03:28:39;24.98;;;11.98;;
75696;SDS011;64312;44.738;20.612;2022-11-15T03:31:30;24.35;;;12.00;;
75696;SDS011;64312;44.738;20.612;2022-11-15T03:34:40;24.38;;;11.48;;
75696;SDS011;64312;44.738;20.612;2022-11-15T03:40:33;21.70;;;10.13;;
75696;SDS011;64312;44.738;20.612;2022-11-15T03:43:27;20.50;;;10.43;;
75696;SDS011;64312;44.738;20.612;2022-11-15T03:46:14;19.27;;;10.13;;
75696;SDS011;64312;44.738;20.612;2022-11-15T03:49:09;20.45;;;10.30;;
75696;SDS011;64312;44.738;20.612;2022-11-15T03:51:58;18.63;;;10.52;;
75696;SDS011;64312;44.738;20.612;2022-11-15T03:54:55;21.05;;;11.02;;
75696;SDS011;64312;44.738;20.612;2022-11-15T03:57:40;21.25;;;11.15;;
75696;SDS011;64312;44.738;20.612;2022-11-15T04:00:25;20.92;;;10.80;;
75696;SDS011;64312;44.738;20.612;2022-11-15T04:03:10;17.33;;;9.30;;
75696;SDS011;64312;44.738;20.612;2022-11-15T04:05:54;18.38;;;10.23;;
75696;SDS011;64312;44.738;20.612;2022-11-15T04:08:39;17.25;;;9.88;;
75696;SDS011;64312;44.738;20.612;2022-11-15T04:11:23;13.98;;;8.23;;
75696;SDS011;64312;44.738;20.612;2022-11-15T04:14:07;15.77;;;8.82;;
75696;SDS011;64312;44.738;20.612;2022-11-15T04:16:52;18.55;;;8.63;;
75696;SDS011;64312;44.738;20.612;2022-11-15T04:19:36;18.60;;;8.57;;
75696;SDS011;64312;44.738;20.612;2022-11-15T04:22:39;18.70;;;9.43;;
75696;SDS011;64312;44.738;20.612;2022-11-15T04:25:42;22.55;;;11.70;;
75696;SDS011;64312;44.738;20.612;2022-11-15T04:28:28;21.40;;;11.48;;
75696;SDS011;64312;44.738;20.612;2022-11-15T04:31:12;20.30;;;11.38;;
75696;SDS011;64312;44.738;20.612;2022-11-15T04:33:57;19.30;;;9.65;;
75696;SDS011;64312;44.738;20.612;2022-11-15T04:36:41;21.45;;;10.35;;
75696;SDS011;64312;44.738;20.612;2022-11-15T04:39:44;17.65;;;8.50;;
75696;SDS011;64312;44.738;20.612;2022-11-15T04:42:29;17.33;;;8.82;;
75696;SDS011;64312;44.738;20.612;2022-11-15T04:45:12;14.38;;;6.18;;
75696;SDS011;64312;44.738;20.612;2022-11-15T04:47:57;13.90;;;6.60;;
75696;SDS011;64312;44.738;20.612;2022-11-15T04:50:41;13.13;;;6.72;;
75696;SDS011;64312;44.738;20.612;2022-11-15T04:53:25;12.57;;;6.20;;
75696;SDS011;64312;44.738;20.612;2022-11-15T04:56:09;11.38;;;5.85;;
75696;SDS011;64312;44.738;20.612;2022-11-15T04:58:54;13.95;;;6.85;;
75696;SDS011;64312;44.738;20.612;2022-11-15T05:01:38;32.05;;;11.52;;
75696;SDS011;64312;44.738;20.612;2022-11-15T05:04:22;43.55;;;14.85;;
75696;SDS011;64312;44.738;20.612;2022-11-15T05:07:06;37.50;;;12.77;;
75696;SDS011;64312;44.738;20.612;2022-11-15T05:09:51;17.88;;;8.55;;
75696;SDS011;64312;44.738;20.612;2022-11-15T05:12:35;18.45;;;8.48;;
75696;SDS011;64312;44.738;20.612;2022-11-15T05:15:20;17.35;;;7.68;;
75696;SDS011;64312;44.738;20.612;2022-11-15T05:18:05;16.08;;;7.65;;
75696;SDS011;64312;44.738;20.612;2022-11-15T05:20:48;13.38;;;7.25;;
75696;SDS011;64312;44.738;20.612;2022-11-15T05:23:33;12.43;;;5.97;;
75696;SDS011;64312;44.738;20.612;2022-11-15T05:26:17;11.68;;;5.30;;
75696;SDS011;64312;44.738;20.612;2022-11-15T05:29:02;8.73;;;5.28;;
75696;SDS011;64312;44.738;20.612;2022-11-15T05:31:46;8.85;;;4.93;;
75696;SDS011;64312;44.738;20.612;2022-11-15T05:34:31;8.57;;;4.63;;
75696;SDS011;64312;44.738;20.612;2022-11-15T05:37:16;11.45;;;5.40;;
75696;SDS011;64312;44.738;20.612;2022-11-15T05:40:02;11.20;;;5.07;;
75696;SDS011;64312;44.738;20.612;2022-11-15T05:42:46;11.32;;;5.45;;
75696;SDS011;64312;44.738;20.612;2022-11-15T05:45:31;11.15;;;5.18;;
75696;SDS011;64312;44.738;20.612;2022-11-15T05:48:17;13.52;;;5.78;;
75696;SDS011;64312;44.738;20.612;2022-11-15T05:51:02;11.15;;;5.57;;
75696;SDS011;64312;44.738;20.612;2022-11-15T05:53:49;9.13;;;5.03;;
75696;SDS011;64312;44.738;20.612;2022-11-15T05:56:35;13.20;;;6.22;;
75696;SDS011;64312;44.738;20.612;2022-11-15T05:59:19;12.30;;;6.18;;
75696;SDS011;64312;44.738;20.612;2022-11-15T06:02:04;9.80;;;5.07;;
75696;SDS011;64312;44.738;20.612;2022-11-15T06:04:49;10.35;;;5.35;;
75696;SDS011;64312;44.738;20.612;2022-11-15T06:07:33;8.90;;;4.68;;
75696;SDS011;64312;44.738;20.612;2022-11-15T06:10:17;7.93;;;5.00;;
75696;SDS011;64312;44.738;20.612;2022-11-15T06:13:03;8.75;;;5.00;;
75696;SDS011;64312;44.738;20.612;2022-11-15T06:15:48;10.73;;;6.38;;
75696;SDS011;64312;44.738;20.612;2022-11-15T06:18:33;14.65;;;7.93;;
75696;SDS011;64312;44.738;20.612;2022-11-15T06:21:18;14.10;;;7.65;;
75696;SDS011;64312;44.738;20.612;2022-11-15T06:24:03;16.60;;;8.30;;
75696;SDS011;64312;44.738;20.612;2022-11-15T06:26:48;21.17;;;10.57;;
75696;SDS011;64312;44.738;20.612;2022-11-15T06:29:33;15.38;;;8.13;;
75696;SDS011;64312;44.738;20.612;2022-11-15T06:32:17;15.90;;;8.15;;
75696;SDS011;64312;44.738;20.612;2022-11-15T06:35:02;16.08;;;9.27;;
75696;SDS011;64312;44.738;20.612;2022-11-15T06:37:47;16.45;;;8.50;;
75696;SDS011;64312;44.738;20.612;2022-11-15T06:40:35;15.35;;;7.88;;
75696;SDS011;64312;44.738;20.612;2022-11-15T06:43:20;13.57;;;7.60;;
75696;SDS011;64312;44.738;20.612;2022-11-15T06:46:05;13.15;;;7.25;;
75696;SDS011;64312;44.738;20.612;2022-11-15T06:48:51;17.30;;;6.60;;
75696;SDS011;64312;44.738;20.612;2022-11-15T06:51:36;12.95;;;6.60;;
75696;SDS011;64312;44.738;20.612;2022-11-15T06:54:21;9.73;;;6.28;;
75696;SDS011;64312;44.738;20.612;2022-11-15T06:57:06;9.77;;;5.90;;
75696;SDS011;64312;44.738;20.612;2022-11-15T06:59:51;17.33;;;7.97;;
75696;SDS011;64312;44.738;20.612;2022-11-15T07:02:35;17.75;;;8.23;;
75696;SDS011;64312;44.738;20.612;2022-11-15T07:05:20;13.25;;;6.38;;
75696;SDS011;64312;44.738;20.612;2022-11-15T07:08:04;10.80;;;5.75;;
75696;SDS011;64312;44.738;20.612;2022-11-15T07:10:49;6.93;;;4.40;;
75696;SDS011;64312;44.738;20.612;2022-11-15T07:13:34;8.13;;;3.83;;
75696;SDS011;64312;44.738;20.612;2022-11-15T07:16:21;7.35;;;4.63;;
75696;SDS011;64312;44.738;20.612;2022-11-15T07:19:05;7.43;;;3.78;;
75696;SDS011;64312;44.738;20.612;2022-11-15T07:21:49;8.10;;;4.00;;
75696;SDS011;64312;44.738;20.612;2022-11-15T07:24:33;15.23;;;8.63;;
75696;SDS011;64312;44.738;20.612;2022-11-15T07:27:18;19.08;;;10.60;;
75696;SDS011;64312;44.738;20.612;2022-11-15T07:30:03;18.75;;;9.88;;
75696;SDS011;64312;44.738;20.612;2022-11-15T07:32:55;17.55;;;9.15;;
75696;SDS011;64312;44.738;20.612;2022-11-15T07:35:41;20.60;;;10.35;;
75696;SDS011;64312;44.738;20.612;2022-11-15T07:38:27;14.60;;;8.60;;
75696;SDS011;64312;44.738;20.612;2022-11-15T07:41:12;20.50;;;10.00;;
75696;SDS011;64312;44.738;20.612;2022-11-15T07:43:56;14.02;;;8.55;;
75696;SDS011;64312;44.738;20.612;2022-11-15T07:46:41;12.05;;;7.45;;
75696;SDS011;64312;44.738;20.612;2022-11-15T07:49:26;12.73;;;7.70;;
75696;SDS011;64312;44.738;20.612;2022-11-15T07:52:10;11.60;;;6.60;;
75696;SDS011;64312;44.738;20.612;2022-11-15T07:54:54;15.82;;;8.38;;
75696;SDS011;64312;44.738;20.612;2022-11-15T07:57:39;14.48;;;7.35;;
75696;SDS011;64312;44.738;20.612;2022-11-15T08:00:23;15.82;;;8.77;;
75696;SDS011;64312;44.738;20.612;2022-11-15T08:03:08;13.85;;;7.40;;
75696;SDS011;64312;44.738;20.612;2022-11-15T08:05:55;12.52;;;6.60;;
75696;SDS011;64312;44.738;20.612;2022-11-15T08:08:40;11.48;;;6.05;;
75696;SDS011;64312;44.738;20.612;2022-11-15T08:11:24;10.88;;;6.30;;
75696;SDS011;64312;44.738;20.612;2022-11-15T08:14:09;11.75;;;5.55;;
75696;SDS011;64312;44.738;20.612;2022-11-15T08:16:57;9.45;;;4.85;;
75696;SDS011;64312;44.738;20.612;2022-11-15T08:19:41;7.95;;;4.50;;
75696;SDS011;64312;44.738;20.612;2022-11-15T08:22:26;7.97;;;3.75;;
75696;SDS011;64312;44.738;20.612;2022-11-15T08:25:10;6.28;;;3.65;;
75696;SDS011;64312;44.738;20.612;2022-11-15T08:27:56;7.32;;;3.65;;
75696;SDS011;64312;44.738;20.612;2022-11-15T08:30:42;4.15;;;2.85;;
75696;SDS011;64312;44.738;20.612;2022-11-15T08:33:29;6.20;;;3.33;;
75696;SDS011;64312;44.738;20.612;2022-11-15T08:36:15;5.30;;;2.83;;
75696;SDS011;64312;44.738;20.612;2022-11-15T08:39:00;5.38;;;3.42;;
75696;SDS011;64312;44.738;20.612;2022-11-15T08:41:45;5.93;;;3.42;;
75696;SDS011;64312;44.738;20.612;2022-11-15T08:44:29;4.00;;;2.88;;
75696;SDS011;64312;44.738;20.612;2022-11-15T08:47:14;3.70;;;2.50;;
75696;SDS011;64312;44.738;20.612;2022-11-15T08:49:58;5.25;;;3.40;;
75696;SDS011;64312;44.738;20.612;2022-11-15T08:52:42;4.88;;;2.97;;
75696;SDS011;64312;44.738;20.612;2022-11-15T08:55:26;3.97;;;2.83;;
75696;SDS011;64312;44.738;20.612;2022-11-15T08:58:10;5.50;;;2.95;;
75696;SDS011;64312;44.738;20.612;2022-11-15T09:00:55;5.07;;;2.50;;
75696;SDS011;64312;44.738;20.612;2022-11-15T09:03:40;4.45;;;2.50;;
75696;SDS011;64312;44.738;20.612;2022-11-15T09:06:25;4.57;;;3.10;;
75696;SDS011;64312;44.738;20.612;2022-11-15T09:09:10;4.30;;;2.60;;
75696;SDS011;64312;44.738;20.612;2022-11-15T09:11:54;6.15;;;3.10;;
75696;SDS011;64312;44.738;20.612;2022-11-15T09:14:39;4.90;;;3.03;;
75696;SDS011;64312;44.738;20.612;2022-11-15T09:17:23;6.57;;;3.65;;
75696;SDS011;64312;44.738;20.612;2022-11-15T09:20:08;5.85;;;3.25;;
75696;SDS011;64312;44.738;20.612;2022-11-15T09:22:53;4.43;;;2.97;;
75696;SDS011;64312;44.738;20.612;2022-11-15T09:25:37;4.85;;;3.30;;
75696;SDS011;64312;44.738;20.612;2022-11-15T09:28:21;6.35;;;3.25;;
75696;SDS011;64312;44.738;20.612;2022-11-15T09:31:06;5.30;;;3.55;;
75696;SDS011;64312;44.738;20.612;2022-11-15T09:33:50;5.95;;;3.42;;
75696;SDS011;64312;44.738;20.612;2022-11-15T09:36:35;5.75;;;3.60;;
75696;SDS011;64312;44.738;20.612;2022-11-15T09:39:19;6.50;;;3.28;;
75696;SDS011;64312;44.738;20.612;2022-11-15T09:45:24;7.18;;;3.80;;
75696;SDS011;64312;44.738;20.612;2022-11-15T09:48:37;5.22;;;3.50;;
75696;SDS011;64312;44.738;20.612;2022-11-15T09:51:48;6.63;;;3.88;;
75696;SDS011;64312;44.738;20.612;2022-11-15T09:54:29;6.50;;;4.00;;
75696;SDS011;64312;44.738;20.612;2022-11-15T10:05:28;5.97;;;3.42;;
75696;SDS011;64312;44.738;20.612;2022-11-15T10:13:04;5.45;;;3.47;;
75696;SDS011;64312;44.738;20.612;2022-11-15T10:15:29;5.93;;;3.53;;
75696;SDS011;64312;44.738;20.612;2022-11-15T10:18:16;5.40;;;3.35;;
75696;SDS011;64312;44.738;20.612;2022-11-15T10:21:02;7.88;;;4.10;;
75696;SDS011;64312;44.738;20.612;2022-11-15T10:23:41;6.15;;;3.35;;
75696;SDS011;64312;44.738;20.612;2022-11-15T10:26:08;5.88;;;2.88;;
75696;SDS011;64312;44.738;20.612;2022-11-15T10:28:38;5.55;;;3.13;;
75696;SDS011;64312;44.738;20.612;2022-11-15T10:31:10;3.90;;;3.40;;
75696;SDS011;64312;44.738;20.612;2022-11-15T10:33:47;6.40;;;3.83;;
75696;SDS011;64312;44.738;20.612;2022-11-15T10:36:14;7.45;;;4.28;;
75696;SDS011;64312;44.738;20.612;2022-11-15T10:41:14;6.93;;;3.83;;
75696;SDS011;64312;44.738;20.612;2022-11-15T10:43:40;6.88;;;3.65;;
75696;SDS011;64312;44.738;20.612;2022-11-15T10:46:19;6.50;;;3.63;;
75696;SDS011;64312;44.738;20.612;2022-11-15T10:48:47;6.00;;;3.75;;
75696;SDS011;64312;44.738;20.612;2022-11-15T10:51:22;6.80;;;3.55;;
75696;SDS011;64312;44.738;20.612;2022-11-15T10:53:54;6.28;;;3.42;;
75696;SDS011;64312;44.738;20.612;2022-11-15T10:56:25;4.85;;;2.90;;
75696;SDS011;64312;44.738;20.612;2022-11-15T10:58:53;5.88;;;3.70;;
75696;SDS011;64312;44.738;20.612;2022-11-15T11:01:25;6.88;;;3.42;;
75696;SDS011;64312;44.738;20.612;2022-11-15T11:11:59;4.63;;;3.17;;
75696;SDS011;64312;44.738;20.612;2022-11-15T11:14:35;4.38;;;3.22;;
75696;SDS011;64312;44.738;20.612;2022-11-15T11:22:44;6.85;;;4.10;;
75696;SDS011;64312;44.738;20.612;2022-11-15T11:33:33;7.68;;;4.47;;
75696;SDS011;64312;44.738;20.612;2022-11-15T11:47:33;8.00;;;4.20;;
75696;SDS011;64312;44.738;20.612;2022-11-15T11:52:43;9.38;;;5.47;;
75696;SDS011;64312;44.738;20.612;2022-11-15T11:55:18;9.98;;;5.60;;
75696;SDS011;64312;44.738;20.612;2022-11-15T12:05:54;11.02;;;6.35;;
75696;SDS011;64312;44.738;20.612;2022-11-15T12:08:46;12.45;;;6.97;;
75696;SDS011;64312;44.738;20.612;2022-11-15T12:11:20;12.15;;;6.85;;
75696;SDS011;64312;44.738;20.612;2022-11-15T12:13:48;11.40;;;6.18;;
75696;SDS011;64312;44.738;20.612;2022-11-15T12:16:21;10.40;;;5.70;;
75696;SDS011;64312;44.738;20.612;2022-11-15T12:18:53;8.63;;;5.60;;
75696;SDS011;64312;44.738;20.612;2022-11-15T12:21:27;8.43;;;5.28;;
75696;SDS011;64312;44.738;20.612;2022-11-15T12:23:59;10.10;;;6.15;;
75696;SDS011;64312;44.738;20.612;2022-11-15T12:26:34;10.00;;;5.55;;
75696;SDS011;64312;44.738;20.612;2022-11-15T12:29:06;9.80;;;5.90;;
75696;SDS011;64312;44.738;20.612;2022-11-15T12:31:41;9.57;;;5.85;;
75696;SDS011;64312;44.738;20.612;2022-11-15T12:36:47;10.65;;;6.45;;
75696;SDS011;64312;44.738;20.612;2022-11-15T12:39:15;13.68;;;6.95;;
75696;SDS011;64312;44.738;20.612;2022-11-15T12:57:35;8.70;;;5.00;;
75696;SDS011;64312;44.738;20.612;2022-11-15T13:00:16;7.38;;;5.00;;
75696;SDS011;64312;44.738;20.612;2022-11-15T13:02:44;7.20;;;4.47;;
75696;SDS011;64312;44.738;20.612;2022-11-15T13:13:02;8.93;;;4.65;;
75696;SDS011;64312;44.738;20.612;2022-11-15T13:15:45;8.55;;;4.90;;
75696;SDS011;64312;44.738;20.612;2022-11-15T13:20:55;7.55;;;4.97;;
75696;SDS011;64312;44.738;20.612;2022-11-15T13:23:21;9.80;;;5.18;;
75696;SDS011;64312;44.738;20.612;2022-11-15T13:25:52;9.75;;;4.97;;
75696;SDS011;64312;44.738;20.612;2022-11-15T13:31:25;11.13;;;5.88;;
75696;SDS011;64312;44.738;20.612;2022-11-15T13:33:55;9.15;;;5.03;;
75696;SDS011;64312;44.738;20.612;2022-11-15T13:36:25;8.45;;;5.57;;
75696;SDS011;64312;44.738;20.612;2022-11-15T13:39:01;7.60;;;4.60;;
75696;SDS011;64312;44.738;20.612;2022-11-15T13:41:35;8.68;;;5.15;;
75696;SDS011;64312;44.738;20.612;2022-11-15T13:44:17;9.48;;;6.03;;
75696;SDS011;64312;44.738;20.612;2022-11-15T13:49:38;7.72;;;5.55;;
75696;SDS011;64312;44.738;20.612;2022-11-15T13:52:06;10.60;;;5.40;;
75696;SDS011;64312;44.738;20.612;2022-11-15T13:54:40;8.18;;;4.80;;
75696;SDS011;64312;44.738;20.612;2022-11-15T13:59:45;11.93;;;6.53;;
75696;SDS011;64312;44.738;20.612;2022-11-15T14:02:17;9.82;;;5.60;;
75696;SDS011;64312;44.738;20.612;2022-11-15T14:09:49;10.13;;;5.20;;
75696;SDS011;64312;44.738;20.612;2022-11-15T14:15:24;6.15;;;3.80;;
75696;SDS011;64312;44.738;20.612;2022-11-15T14:17:53;6.10;;;3.55;;
75696;SDS011;64312;44.738;20.612;2022-11-15T14:25:53;7.80;;;4.55;;
75696;SDS011;64312;44.738;20.612;2022-11-15T14:30:49;8.43;;;4.88;;
75696;SDS011;64312;44.738;20.612;2022-11-15T14:33:24;7.80;;;4.72;;
75696;SDS011;64312;44.738;20.612;2022-11-15T14:35:55;7.57;;;4.22;;
75696;SDS011;64312;44.738;20.612;2022-11-15T14:38:23;7.75;;;4.65;;
75696;SDS011;64312;44.738;20.612;2022-11-15T14:40:50;10.80;;;4.75;;
75696;SDS011;64312;44.738;20.612;2022-11-15T14:43:16;9.48;;;4.53;;
75696;SDS011;64312;44.738;20.612;2022-11-15T14:45:42;9.82;;;5.75;;
75696;SDS011;64312;44.738;20.612;2022-11-15T14:48:08;10.15;;;4.65;;
75696;SDS011;64312;44.738;20.612;2022-11-15T14:50:34;11.95;;;5.70;;
75696;SDS011;64312;44.738;20.612;2022-11-15T14:53:00;12.10;;;5.93;;
75696;SDS011;64312;44.738;20.612;2022-11-15T14:55:29;10.63;;;6.15;;
75696;SDS011;64312;44.738;20.612;2022-11-15T14:58:01;14.40;;;6.85;;
75696;SDS011;64312;44.738;20.612;2022-11-15T15:00:29;11.13;;;6.25;;
75696;SDS011;64312;44.738;20.612;2022-11-15T15:02:55;15.25;;;7.07;;
75696;SDS011;64312;44.738;20.612;2022-11-15T15:05:22;14.88;;;7.70;;
75696;SDS011;64312;44.738;20.612;2022-11-15T15:07:50;17.40;;;8.38;;
75696;SDS011;64312;44.738;20.612;2022-11-15T15:10:18;13.98;;;7.45;;
75696;SDS011;64312;44.738;20.612;2022-11-15T15:12:44;12.13;;;6.30;;
75696;SDS011;64312;44.738;20.612;2022-11-15T15:15:24;11.95;;;6.63;;
75696;SDS011;64312;44.738;20.612;2022-11-15T15:17:51;15.13;;;7.07;;
75696;SDS011;64312;44.738;20.612;2022-11-15T15:20:17;14.52;;;8.00;;
75696;SDS011;64312;44.738;20.612;2022-11-15T15:22:43;18.98;;;9.68;;
75696;SDS011;64312;44.738;20.612;2022-11-15T15:25:19;16.88;;;8.40;;
75696;SDS011;64312;44.738;20.612;2022-11-15T15:27:53;16.25;;;8.70;;
75696;SDS011;64312;44.738;20.612;2022-11-15T15:30:20;16.80;;;8.60;;
75696;SDS011;64312;44.738;20.612;2022-11-15T15:32:47;18.90;;;9.38;;
75696;SDS011;64312;44.738;20.612;2022-11-15T15:35:14;16.60;;;8.90;;
75696;SDS011;64312;44.738;20.612;2022-11-15T15:37:41;18.92;;;9.00;;
75696;SDS011;64312;44.738;20.612;2022-11-15T15:40:17;18.85;;;8.52;;
75696;SDS011;64312;44.738;20.612;2022-11-15T15:42:46;21.23;;;10.93;;
75696;SDS011;64312;44.738;20.612;2022-11-15T15:45:12;23.42;;;10.93;;
75696;SDS011;64312;44.738;20.612;2022-11-15T15:47:39;17.80;;;8.52;;
75696;SDS011;64312;44.738;20.612;2022-11-15T15:50:12;14.18;;;7.55;;
75696;SDS011;64312;44.738;20.612;2022-11-15T15:52:45;14.48;;;7.22;;
75696;SDS011;64312;44.738;20.612;2022-11-15T15:55:11;14.60;;;6.95;;
75696;SDS011;64312;44.738;20.612;2022-11-15T15:57:36;14.57;;;8.48;;
75696;SDS011;64312;44.738;20.612;2022-11-15T16:00:03;11.68;;;6.72;;
75696;SDS011;64312;44.738;20.612;2022-11-15T16:02:37;13.55;;;6.43;;
75696;SDS011;64312;44.738;20.612;2022-11-15T16:05:03;12.32;;;6.53;;
75696;SDS011;64312;44.738;20.612;2022-11-15T16:07:29;12.93;;;6.70;;
75696;SDS011;64312;44.738;20.612;2022-11-15T16:09:55;10.23;;;5.53;;
75696;SDS011;64312;44.738;20.612;2022-11-15T16:12:30;10.75;;;6.47;;
75696;SDS011;64312;44.738;20.612;2022-11-15T16:14:58;12.30;;;5.18;;
75696;SDS011;64312;44.738;20.612;2022-11-15T16:17:25;10.55;;;5.43;;
75696;SDS011;64312;44.738;20.612;2022-11-15T16:19:53;12.73;;;6.40;;
75696;SDS011;64312;44.738;20.612;2022-11-15T16:22:19;52.63;;;22.80;;
75696;SDS011;64312;44.738;20.612;2022-11-15T16:24:45;47.30;;;19.85;;
75696;SDS011;64312;44.738;20.612;2022-11-15T16:27:18;47.78;;;19.67;;
75696;SDS011;64312;44.738;20.612;2022-11-15T16:29:45;39.65;;;17.48;;
75696;SDS011;64312;44.738;20.612;2022-11-15T16:32:12;29.60;;;14.10;;
75696;SDS011;64312;44.738;20.612;2022-11-15T16:34:38;36.42;;;15.15;;
75696;SDS011;64312;44.738;20.612;2022-11-15T16:37:03;28.15;;;13.35;;
75696;SDS011;64312;44.738;20.612;2022-11-15T16:39:30;30.73;;;14.70;;
75696;SDS011;64312;44.738;20.612;2022-11-15T16:41:57;31.42;;;14.60;;
75696;SDS011;64312;44.738;20.612;2022-11-15T16:44:22;45.30;;;18.70;;
75696;SDS011;64312;44.738;20.612;2022-11-15T16:46:49;38.75;;;18.02;;
75696;SDS011;64312;44.738;20.612;2022-11-15T16:49:16;34.08;;;15.25;;
75696;SDS011;64312;44.738;20.612;2022-11-15T16:51:44;28.98;;;14.15;;
75696;SDS011;64312;44.738;20.612;2022-11-15T16:54:11;29.52;;;15.00;;
75696;SDS011;64312;44.738;20.612;2022-11-15T16:56:37;31.45;;;15.57;;
75696;SDS011;64312;44.738;20.612;2022-11-15T16:59:03;33.72;;;16.10;;
75696;SDS011;64312;44.738;20.612;2022-11-15T17:01:31;28.33;;;14.80;;
75696;SDS011;64312;44.738;20.612;2022-11-15T17:04:03;28.48;;;14.23;;
75696;SDS011;64312;44.738;20.612;2022-11-15T17:06:40;31.42;;;16.40;;
75696;SDS011;64312;44.738;20.612;2022-11-15T17:09:14;37.72;;;17.48;;
75696;SDS011;64312;44.738;20.612;2022-11-15T17:11:44;36.00;;;16.10;;
75696;SDS011;64312;44.738;20.612;2022-11-15T17:14:10;47.22;;;18.27;;
75696;SDS011;64312;44.738;20.612;2022-11-15T17:16:36;42.55;;;19.02;;
75696;SDS011;64312;44.738;20.612;2022-11-15T17:19:06;40.53;;;17.58;;
75696;SDS011;64312;44.738;20.612;2022-11-15T17:21:37;40.05;;;19.00;;
75696;SDS011;64312;44.738;20.612;2022-11-15T17:24:03;53.75;;;24.75;;
75696;SDS011;64312;44.738;20.612;2022-11-15T17:26:29;62.08;;;30.90;;
75696;SDS011;64312;44.738;20.612;2022-11-15T17:28:54;65.78;;;29.98;;
75696;SDS011;64312;44.738;20.612;2022-11-15T17:31:21;67.78;;;32.70;;
75696;SDS011;64312;44.738;20.612;2022-11-15T17:33:47;62.63;;;30.08;;
75696;SDS011;64312;44.738;20.612;2022-11-15T17:36:13;59.15;;;29.45;;
75696;SDS011;64312;44.738;20.612;2022-11-15T17:38:41;57.67;;;27.00;;
75696;SDS011;64312;44.738;20.612;2022-11-15T17:41:14;53.08;;;27.15;;
75696;SDS011;64312;44.738;20.612;2022-11-15T17:43:40;54.67;;;25.90;;
75696;SDS011;64312;44.738;20.612;2022-11-15T17:46:07;52.60;;;24.60;;
75696;SDS011;64312;44.738;20.612;2022-11-15T17:48:36;52.38;;;22.77;;
75696;SDS011;64312;44.738;20.612;2022-11-15T17:51:03;46.17;;;22.00;;
75696;SDS011;64312;44.738;20.612;2022-11-15T17:53:31;48.63;;;22.13;;
75696;SDS011;64312;44.738;20.612;2022-11-15T17:56:05;45.00;;;20.63;;
75696;SDS011;64312;44.738;20.612;2022-11-15T17:58:32;48.55;;;20.23;;
75696;SDS011;64312;44.738;20.612;2022-11-15T18:01:08;35.35;;;16.52;;
75696;SDS011;64312;44.738;20.612;2022-11-15T18:06:06;26.23;;;13.10;;